sensor_id;sensor_type;location;lat;lon;timestamp;pressure;altitude;pressure_sealevel;temperature;humidity
37848;BME280;23688;33.130;-117.188;2023-01-29T00:02:10;99352.50;;;14.10;77.40
37848;BME280;23688;33.130;-117.188;2023-01-29T00:04:36;99330.13;;;14.20;77.57
37848;BME280;23688;33.130;-117.188;2023-01-29T00:07:02;99335.69;;;14.34;75.85
37848;BME280;23688;33.130;-117.188;2023-01-29T00:09:29;99354.94;;;14.04;75.98
37848;BME280;23688;33.130;-117.188;2023-01-29T00:11:56;99343.16;;;14.20;77.90
37848;BME280;23688;33.130;-117.188;2023-01-29T00:14:22;99360.06;;;14.36;76.41
37848;BME280;23688;33.130;-117.188;2023-01-29T00:16:49;99359.38;;;14.43;75.47
37848;BME280;23688;33.130;-117.188;2023-01-29T00:19:15;99363.03;;;14.50;75.54
37848;BME280;23688;33.130;-117.188;2023-01-29T00:21:42;99347.19;;;14.42;75.76
37848;BME280;23688;33.130;-117.188;2023-01-29T00:24:08;99362.09;;;14.48;75.28
37848;BME280;23688;33.130;-117.188;2023-01-29T00:26:34;99344.09;;;14.22;74.86
37848;BME280;23688;33.130;-117.188;2023-01-29T00:29:02;99346.94;;;14.33;75.12
37848;BME280;23688;33.130;-117.188;2023-01-29T00:31:28;99361.97;;;14.07;76.33
37848;BME280;23688;33.130;-117.188;2023-01-29T00:33:54;99349.78;;;14.06;76.77
37848;BME280;23688;33.130;-117.188;2023-01-29T00:36:22;99360.22;;;13.71;78.16
37848;BME280;23688;33.130;-117.188;2023-01-29T00:38:54;99361.75;;;13.64;79.23
37848;BME280;23688;33.130;-117.188;2023-01-29T00:41:26;99368.97;;;13.75;78.79
37848;BME280;23688;33.130;-117.188;2023-01-29T00:44:11;99356.19;;;13.84;77.56
37848;BME280;23688;33.130;-117.188;2023-01-29T00:46:56;99380.75;;;13.60;77.00
37848;BME280;23688;33.130;-117.188;2023-01-29T00:49:22;99376.41;;;13.59;76.71
37848;BME280;23688;33.130;-117.188;2023-01-29T00:51:49;99370.66;;;13.41;77.05
37848;BME280;23688;33.130;-117.188;2023-01-29T00:54:33;99384.28;;;13.31;77.24
37848;BME280;23688;33.130;-117.188;2023-01-29T00:57:02;99371.44;;;13.37;76.96
37848;BME280;23688;33.130;-117.188;2023-01-29T00:59:29;99369.78;;;13.40;76.41
37848;BME280;23688;33.130;-117.188;2023-01-29T01:01:55;99358.78;;;13.20;77.33
37848;BME280;23688;33.130;-117.188;2023-01-29T01:04:40;99381.50;;;13.24;77.43
37848;BME280;23688;33.130;-117.188;2023-01-29T01:07:06;99392.66;;;12.90;79.33
37848;BME280;23688;33.130;-117.188;2023-01-29T01:09:36;99384.06;;;12.94;79.54
37848;BME280;23688;33.130;-117.188;2023-01-29T01:12:21;99388.03;;;13.10;79.13
37848;BME280;23688;33.130;-117.188;2023-01-29T01:14:47;99388.97;;;13.12;78.90
37848;BME280;23688;33.130;-117.188;2023-01-29T01:17:14;99378.25;;;13.03;79.54
37848;BME280;23688;33.130;-117.188;2023-01-29T01:19:40;99396.22;;;12.94;80.38
37848;BME280;23688;33.130;-117.188;2023-01-29T01:22:07;99396.22;;;12.94;81.27
37848;BME280;23688;33.130;-117.188;2023-01-29T01:24:33;99401.28;;;12.89;81.56
37848;BME280;23688;33.130;-117.188;2023-01-29T01:27:00;99398.59;;;12.86;82.51
37848;BME280;23688;33.130;-117.188;2023-01-29T01:29:26;99396.56;;;12.76;83.54
37848;BME280;23688;33.130;-117.188;2023-01-29T01:31:53;99399.03;;;12.73;84.26
37848;BME280;23688;33.130;-117.188;2023-01-29T01:34:19;99406.03;;;12.74;84.57
37848;BME280;23688;33.130;-117.188;2023-01-29T01:36:47;99410.25;;;12.70;84.92
37848;BME280;23688;33.130;-117.188;2023-01-29T01:39:13;99405.16;;;12.73;85.48
37848;BME280;23688;33.130;-117.188;2023-01-29T01:41:40;99411.03;;;12.68;86.15
37848;BME280;23688;33.130;-117.188;2023-01-29T01:47:13;99408.41;;;12.66;87.31
37848;BME280;23688;33.130;-117.188;2023-01-29T01:49:42;99404.78;;;12.61;87.60
37848;BME280;23688;33.130;-117.188;2023-01-29T01:52:09;99408.84;;;12.53;88.67
37848;BME280;23688;33.130;-117.188;2023-01-29T01:54:37;99403.28;;;12.42;89.48
37848;BME280;23688;33.130;-117.188;2023-01-29T01:57:08;99393.44;;;12.33;90.14
37848;BME280;23688;33.130;-117.188;2023-01-29T01:59:45;99401.56;;;12.42;89.86
37848;BME280;23688;33.130;-117.188;2023-01-29T02:02:14;99406.72;;;12.41;90.16
37848;BME280;23688;33.130;-117.188;2023-01-29T02:04:59;99394.25;;;12.31;89.70
37848;BME280;23688;33.130;-117.188;2023-01-29T02:07:46;99413.66;;;12.40;89.28
37848;BME280;23688;33.130;-117.188;2023-01-29T02:10:36;99406.47;;;12.33;88.73
37848;BME280;23688;33.130;-117.188;2023-01-29T02:13:05;99418.03;;;12.41;88.11
37848;BME280;23688;33.130;-117.188;2023-01-29T02:15:32;99407.84;;;12.22;88.42
37848;BME280;23688;33.130;-117.188;2023-01-29T02:17:59;99409.59;;;12.23;88.57
37848;BME280;23688;33.130;-117.188;2023-01-29T02:20:27;99426.16;;;12.25;88.99
37848;BME280;23688;33.130;-117.188;2023-01-29T02:25:22;99431.69;;;12.34;88.91
37848;BME280;23688;33.130;-117.188;2023-01-29T02:30:39;99432.34;;;12.29;87.99
37848;BME280;23688;33.130;-117.188;2023-01-29T02:41:59;99436.75;;;12.30;87.97
37848;BME280;23688;33.130;-117.188;2023-01-29T02:44:39;99439.84;;;12.45;87.42
37848;BME280;23688;33.130;-117.188;2023-01-29T02:49:57;99434.22;;;12.33;85.82
37848;BME280;23688;33.130;-117.188;2023-01-29T02:52:44;99435.00;;;12.30;85.85
37848;BME280;23688;33.130;-117.188;2023-01-29T02:55:20;99429.91;;;12.33;85.99
37848;BME280;23688;33.130;-117.188;2023-01-29T02:57:52;99437.44;;;12.24;86.33
37848;BME280;23688;33.130;-117.188;2023-01-29T03:00:28;99429.31;;;12.15;86.01
37848;BME280;23688;33.130;-117.188;2023-01-29T03:05:38;99429.50;;;12.21;85.59
37848;BME280;23688;33.130;-117.188;2023-01-29T03:08:12;99447.97;;;12.29;85.21
37848;BME280;23688;33.130;-117.188;2023-01-29T03:10:56;99453.03;;;12.24;84.85
37848;BME280;23688;33.130;-117.188;2023-01-29T03:13:39;99456.84;;;12.34;84.90
37848;BME280;23688;33.130;-117.188;2023-01-29T03:18:40;99472.81;;;12.45;84.34
37848;BME280;23688;33.130;-117.188;2023-01-29T03:21:20;99454.53;;;12.43;83.79
37848;BME280;23688;33.130;-117.188;2023-01-29T03:24:10;99460.72;;;12.47;83.54
37848;BME280;23688;33.130;-117.188;2023-01-29T03:26:59;99457.34;;;12.49;83.37
37848;BME280;23688;33.130;-117.188;2023-01-29T03:29:46;99450.97;;;12.41;83.11
37848;BME280;23688;33.130;-117.188;2023-01-29T03:32:32;99457.38;;;12.51;83.00
37848;BME280;23688;33.130;-117.188;2023-01-29T03:35:04;99467.78;;;12.51;82.91
37848;BME280;23688;33.130;-117.188;2023-01-29T03:37:33;99470.22;;;12.45;83.48
37848;BME280;23688;33.130;-117.188;2023-01-29T03:40:03;99467.91;;;12.54;83.40
37848;BME280;23688;33.130;-117.188;2023-01-29T03:42:52;99474.31;;;12.63;82.59
37848;BME280;23688;33.130;-117.188;2023-01-29T03:45:26;99472.72;;;12.69;81.84
37848;BME280;23688;33.130;-117.188;2023-01-29T03:55:36;99483.56;;;12.82;81.66
37848;BME280;23688;33.130;-117.188;2023-01-29T04:00:45;99482.28;;;12.68;82.77
37848;BME280;23688;33.130;-117.188;2023-01-29T04:03:22;99482.91;;;12.61;82.22
37848;BME280;23688;33.130;-117.188;2023-01-29T04:06:12;99486.97;;;12.53;82.73
37848;BME280;23688;33.130;-117.188;2023-01-29T04:08:50;99490.09;;;12.42;82.67
37848;BME280;23688;33.130;-117.188;2023-01-29T04:11:20;99465.53;;;12.34;82.08
37848;BME280;23688;33.130;-117.188;2023-01-29T04:13:47;99485.03;;;12.47;82.22
37848;BME280;23688;33.130;-117.188;2023-01-29T04:16:18;99473.81;;;12.23;82.31
37848;BME280;23688;33.130;-117.188;2023-01-29T04:18:47;99495.50;;;12.23;83.00
37848;BME280;23688;33.130;-117.188;2023-01-29T04:21:14;99490.63;;;12.32;82.41
37848;BME280;23688;33.130;-117.188;2023-01-29T04:23:41;99499.16;;;12.28;82.36
37848;BME280;23688;33.130;-117.188;2023-01-29T04:26:37;99495.59;;;12.26;83.08
37848;BME280;23688;33.130;-117.188;2023-01-29T04:31:58;99483.22;;;12.19;82.57
37848;BME280;23688;33.130;-117.188;2023-01-29T04:34:43;99485.03;;;12.21;82.57
37848;BME280;23688;33.130;-117.188;2023-01-29T04:37:38;99492.28;;;12.30;82.92
37848;BME280;23688;33.130;-117.188;2023-01-29T04:40:30;99495.94;;;12.35;82.06
37848;BME280;23688;33.130;-117.188;2023-01-29T04:43:08;99487.31;;;12.36;81.07
37848;BME280;23688;33.130;-117.188;2023-01-29T04:51:32;99496.78;;;12.34;80.32
37848;BME280;23688;33.130;-117.188;2023-01-29T04:54:08;99481.88;;;12.30;80.83
37848;BME280;23688;33.130;-117.188;2023-01-29T04:59:20;99497.44;;;12.29;80.18
37848;BME280;23688;33.130;-117.188;2023-01-29T05:01:49;99490.13;;;12.18;79.66
37848;BME280;23688;33.130;-117.188;2023-01-29T05:04:17;99493.75;;;12.22;80.09
37848;BME280;23688;33.130;-117.188;2023-01-29T05:06:49;99485.63;;;12.13;80.06
37848;BME280;23688;33.130;-117.188;2023-01-29T05:09:16;99484.00;;;12.16;79.40
37848;BME280;23688;33.130;-117.188;2023-01-29T05:11:44;99471.72;;;12.12;79.64
37848;BME280;23688;33.130;-117.188;2023-01-29T05:14:13;99487.09;;;12.06;79.26
37848;BME280;23688;33.130;-117.188;2023-01-29T05:16:45;99489.94;;;12.12;78.98
37848;BME280;23688;33.130;-117.188;2023-01-29T05:19:13;99496.75;;;12.09;78.84
37848;BME280;23688;33.130;-117.188;2023-01-29T05:21:43;99484.66;;;12.11;78.93
37848;BME280;23688;33.130;-117.188;2023-01-29T05:24:14;99492.22;;;12.03;78.64
37848;BME280;23688;33.130;-117.188;2023-01-29T05:26:46;99502.81;;;12.09;78.59
37848;BME280;23688;33.130;-117.188;2023-01-29T05:29:31;99495.69;;;12.04;78.29
37848;BME280;23688;33.130;-117.188;2023-01-29T05:31:58;99487.72;;;11.99;78.25
37848;BME280;23688;33.130;-117.188;2023-01-29T05:34:24;99500.28;;;12.11;78.26
37848;BME280;23688;33.130;-117.188;2023-01-29T05:36:51;99512.59;;;12.15;78.70
37848;BME280;23688;33.130;-117.188;2023-01-29T05:39:17;99499.13;;;12.03;78.35
37848;BME280;23688;33.130;-117.188;2023-01-29T05:41:44;99514.66;;;12.25;77.06
37848;BME280;23688;33.130;-117.188;2023-01-29T05:44:10;99509.63;;;12.30;75.38
37848;BME280;23688;33.130;-117.188;2023-01-29T05:46:37;99510.50;;;12.30;75.38
37848;BME280;23688;33.130;-117.188;2023-01-29T05:49:04;99506.75;;;12.22;76.28
37848;BME280;23688;33.130;-117.188;2023-01-29T05:51:31;99507.81;;;12.27;75.80
37848;BME280;23688;33.130;-117.188;2023-01-29T05:53:57;99488.41;;;12.19;74.28
37848;BME280;23688;33.130;-117.188;2023-01-29T05:56:23;99506.59;;;12.17;73.76
37848;BME280;23688;33.130;-117.188;2023-01-29T05:58:52;99489.19;;;12.16;73.65
37848;BME280;23688;33.130;-117.188;2023-01-29T06:01:22;99513.56;;;12.18;72.10
37848;BME280;23688;33.130;-117.188;2023-01-29T06:03:48;99499.56;;;12.15;72.01
37848;BME280;23688;33.130;-117.188;2023-01-29T06:06:15;99512.59;;;12.15;70.70
37848;BME280;23688;33.130;-117.188;2023-01-29T06:08:42;99486.44;;;12.12;70.73
37848;BME280;23688;33.130;-117.188;2023-01-29T06:11:10;99494.22;;;12.12;70.51
37848;BME280;23688;33.130;-117.188;2023-01-29T06:13:37;99500.63;;;12.20;71.10
37848;BME280;23688;33.130;-117.188;2023-01-29T06:16:07;99496.50;;;12.27;71.05
37848;BME280;23688;33.130;-117.188;2023-01-29T06:18:34;99483.88;;;12.13;70.99
37848;BME280;23688;33.130;-117.188;2023-01-29T06:21:02;99492.81;;;12.20;70.91
37848;BME280;23688;33.130;-117.188;2023-01-29T06:23:29;99498.97;;;12.22;71.27
37848;BME280;23688;33.130;-117.188;2023-01-29T06:26:18;99500.72;;;12.23;71.61
37848;BME280;23688;33.130;-117.188;2023-01-29T06:28:48;99483.00;;;12.13;70.90
37848;BME280;23688;33.130;-117.188;2023-01-29T06:31:14;99504.97;;;12.21;71.28
37848;BME280;23688;33.130;-117.188;2023-01-29T06:33:40;99507.25;;;12.12;72.06
37848;BME280;23688;33.130;-117.188;2023-01-29T06:36:07;99495.19;;;12.14;72.38
37848;BME280;23688;33.130;-117.188;2023-01-29T06:38:34;99512.00;;;12.24;71.85
37848;BME280;23688;33.130;-117.188;2023-01-29T06:41:10;99513.72;;;12.23;72.14
37848;BME280;23688;33.130;-117.188;2023-01-29T06:43:37;99506.97;;;12.28;72.46
37848;BME280;23688;33.130;-117.188;2023-01-29T06:46:06;99506.16;;;12.29;71.92
37848;BME280;23688;33.130;-117.188;2023-01-29T06:48:32;99508.00;;;12.33;72.08
37848;BME280;23688;33.130;-117.188;2023-01-29T06:51:06;99500.97;;;12.05;73.73
37848;BME280;23688;33.130;-117.188;2023-01-29T06:53:34;99499.19;;;12.04;74.19
37848;BME280;23688;33.130;-117.188;2023-01-29T06:56:01;99508.41;;;12.20;73.75
37848;BME280;23688;33.130;-117.188;2023-01-29T06:58:27;99487.22;;;12.09;73.65
37848;BME280;23688;33.130;-117.188;2023-01-29T07:00:53;99505.03;;;12.23;73.98
37848;BME280;23688;33.130;-117.188;2023-01-29T07:03:19;99504.41;;;12.30;73.74
37848;BME280;23688;33.130;-117.188;2023-01-29T07:05:50;99512.69;;;12.18;74.37
37848;BME280;23688;33.130;-117.188;2023-01-29T07:08:18;99504.38;;;12.04;74.84
37848;BME280;23688;33.130;-117.188;2023-01-29T07:10:48;99501.16;;;12.11;74.71
37848;BME280;23688;33.130;-117.188;2023-01-29T07:13:15;99493.41;;;12.13;74.47
37848;BME280;23688;33.130;-117.188;2023-01-29T07:15:41;99484.66;;;12.11;74.89
37848;BME280;23688;33.130;-117.188;2023-01-29T07:18:09;99496.34;;;12.22;74.66
37848;BME280;23688;33.130;-117.188;2023-01-29T07:20:39;99500.78;;;12.25;74.24
37848;BME280;23688;33.130;-117.188;2023-01-29T07:23:08;99486.72;;;12.19;74.52
37848;BME280;23688;33.130;-117.188;2023-01-29T07:25:35;99464.56;;;12.07;74.60
37848;BME280;23688;33.130;-117.188;2023-01-29T07:28:03;99483.97;;;12.15;74.90
37848;BME280;23688;33.130;-117.188;2023-01-29T07:30:29;99485.81;;;12.19;74.80
37848;BME280;23688;33.130;-117.188;2023-01-29T07:33:01;99494.72;;;12.26;74.90
37848;BME280;23688;33.130;-117.188;2023-01-29T07:35:28;99486.88;;;12.24;74.82
37848;BME280;23688;33.130;-117.188;2023-01-29T07:37:54;99478.00;;;12.19;75.35
37848;BME280;23688;33.130;-117.188;2023-01-29T07:40:20;99490.19;;;12.20;75.56
37848;BME280;23688;33.130;-117.188;2023-01-29T07:42:46;99485.00;;;12.20;75.73
37848;BME280;23688;33.130;-117.188;2023-01-29T07:45:13;99496.50;;;12.27;75.70
37848;BME280;23688;33.130;-117.188;2023-01-29T07:48:11;99487.94;;;12.31;76.08
37848;BME280;23688;33.130;-117.188;2023-01-29T07:50:39;99491.50;;;12.33;75.78
37848;BME280;23688;33.130;-117.188;2023-01-29T07:53:06;99477.28;;;12.23;75.99
37848;BME280;23688;33.130;-117.188;2023-01-29T07:55:33;99488.19;;;12.37;75.88
37848;BME280;23688;33.130;-117.188;2023-01-29T07:58:01;99474.75;;;12.25;76.16
37848;BME280;23688;33.130;-117.188;2023-01-29T08:00:28;99488.91;;;12.33;76.02
37848;BME280;23688;33.130;-117.188;2023-01-29T08:03:04;99460.41;;;12.12;76.30
37848;BME280;23688;33.130;-117.188;2023-01-29T08:05:31;99485.16;;;12.25;76.57
37848;BME280;23688;33.130;-117.188;2023-01-29T08:07:58;99478.13;;;12.22;76.73
37848;BME280;23688;33.130;-117.188;2023-01-29T08:10:24;99483.22;;;12.19;76.93
37848;BME280;23688;33.130;-117.188;2023-01-29T08:12:58;99474.59;;;12.20;77.41
37848;BME280;23688;33.130;-117.188;2023-01-29T08:15:25;99476.41;;;12.23;77.27
37848;BME280;23688;33.130;-117.188;2023-01-29T08:17:51;99458.75;;;12.14;77.21
37848;BME280;23688;33.130;-117.188;2023-01-29T08:20:18;99472.94;;;12.22;77.54
37848;BME280;23688;33.130;-117.188;2023-01-29T08:22:46;99479.09;;;12.26;77.51
37848;BME280;23688;33.130;-117.188;2023-01-29T08:25:13;99471.25;;;12.24;77.68
37848;BME280;23688;33.130;-117.188;2023-01-29T08:27:40;99456.28;;;12.17;77.07
37848;BME280;23688;33.130;-117.188;2023-01-29T08:30:09;99475.56;;;12.24;77.48
37848;BME280;23688;33.130;-117.188;2023-01-29T08:32:35;99450.16;;;12.16;77.29
37848;BME280;23688;33.130;-117.188;2023-01-29T08:35:02;99460.09;;;12.28;77.47
37848;BME280;23688;33.130;-117.188;2023-01-29T08:37:28;99462.69;;;12.27;77.30
37848;BME280;23688;33.130;-117.188;2023-01-29T08:39:54;99457.47;;;12.27;77.31
37848;BME280;23688;33.130;-117.188;2023-01-29T08:42:20;99458.34;;;12.27;77.45
37848;BME280;23688;33.130;-117.188;2023-01-29T08:44:47;99450.31;;;12.21;77.61
37848;BME280;23688;33.130;-117.188;2023-01-29T08:47:13;99451.84;;;12.14;77.51
37848;BME280;23688;33.130;-117.188;2023-01-29T08:49:39;99444.94;;;12.16;77.86
37848;BME280;23688;33.130;-117.188;2023-01-29T08:52:05;99437.09;;;12.15;77.78
37848;BME280;23688;33.130;-117.188;2023-01-29T08:54:31;99450.75;;;12.08;77.80
37848;BME280;23688;33.130;-117.188;2023-01-29T08:56:58;99433.97;;;11.99;78.12
37848;BME280;23688;33.130;-117.188;2023-01-29T08:59:24;99436.78;;;12.06;78.35
37848;BME280;23688;33.130;-117.188;2023-01-29T09:01:50;99435.53;;;11.94;78.89
37848;BME280;23688;33.130;-117.188;2023-01-29T09:04:17;99425.72;;;11.87;78.89
37848;BME280;23688;33.130;-117.188;2023-01-29T09:06:43;99433.75;;;11.93;79.67
37848;BME280;23688;33.130;-117.188;2023-01-29T09:09:10;99421.28;;;11.85;79.03
37848;BME280;23688;33.130;-117.188;2023-01-29T09:11:39;99426.69;;;11.89;79.39
37848;BME280;23688;33.130;-117.188;2023-01-29T09:14:05;99439.16;;;11.99;79.61
37848;BME280;23688;33.130;-117.188;2023-01-29T09:16:32;99430.44;;;11.97;79.31
37848;BME280;23688;33.130;-117.188;2023-01-29T09:18:58;99431.88;;;11.89;79.86
37848;BME280;23688;33.130;-117.188;2023-01-29T09:21:24;99415.91;;;11.80;80.23
37848;BME280;23688;33.130;-117.188;2023-01-29T09:23:51;99398.06;;;11.65;80.69
37848;BME280;23688;33.130;-117.188;2023-01-29T09:26:17;99417.59;;;11.78;81.04
37848;BME280;23688;33.130;-117.188;2023-01-29T09:28:43;99402.63;;;11.72;81.44
37848;BME280;23688;33.130;-117.188;2023-01-29T09:31:10;99418.56;;;11.82;81.56
37848;BME280;23688;33.130;-117.188;2023-01-29T09:33:36;99404.47;;;11.75;81.11
37848;BME280;23688;33.130;-117.188;2023-01-29T09:36:03;99405.47;;;11.78;81.37
37848;BME280;23688;33.130;-117.188;2023-01-29T09:38:29;99409.81;;;11.79;81.01
37848;BME280;23688;33.130;-117.188;2023-01-29T09:44:34;99385.97;;;11.66;81.28
37848;BME280;23688;33.130;-117.188;2023-01-29T09:47:10;99407.19;;;11.78;80.88
37848;BME280;23688;33.130;-117.188;2023-01-29T09:49:42;99403.41;;;11.70;80.91
37848;BME280;23688;33.130;-117.188;2023-01-29T09:52:25;99409.50;;;11.70;81.18
37848;BME280;23688;33.130;-117.188;2023-01-29T09:55:24;99410.28;;;11.68;81.25
37848;BME280;23688;33.130;-117.188;2023-01-29T09:58:22;99410.50;;;11.74;81.28
37848;BME280;23688;33.130;-117.188;2023-01-29T10:01:19;99393.47;;;11.58;81.31
37848;BME280;23688;33.130;-117.188;2023-01-29T10:06:40;99409.06;;;11.58;81.75
37848;BME280;23688;33.130;-117.188;2023-01-29T10:09:29;99404.88;;;11.62;82.50
37848;BME280;23688;33.130;-117.188;2023-01-29T10:14:48;99399.44;;;11.55;82.08
37848;BME280;23688;33.130;-117.188;2023-01-29T10:25:29;99397.88;;;11.61;82.26
37848;BME280;23688;33.130;-117.188;2023-01-29T10:27:59;99388.41;;;11.61;82.34
37848;BME280;23688;33.130;-117.188;2023-01-29T10:30:37;99384.28;;;11.68;82.77
37848;BME280;23688;33.130;-117.188;2023-01-29T10:33:05;99391.25;;;11.69;82.54
37848;BME280;23688;33.130;-117.188;2023-01-29T10:35:47;99382.19;;;11.57;82.80
37848;BME280;23688;33.130;-117.188;2023-01-29T10:47:22;99373.94;;;11.45;84.17
37848;BME280;23688;33.130;-117.188;2023-01-29T10:55:36;99370.47;;;11.45;85.17
37848;BME280;23688;33.130;-117.188;2023-01-29T11:00:55;99369.69;;;11.47;84.56
37848;BME280;23688;33.130;-117.188;2023-01-29T11:03:23;99378.03;;;11.39;85.62
37848;BME280;23688;33.130;-117.188;2023-01-29T11:08:50;99365.44;;;11.25;86.39
37848;BME280;23688;33.130;-117.188;2023-01-29T11:11:19;99372.69;;;11.34;85.96
37848;BME280;23688;33.130;-117.188;2023-01-29T11:13:56;99370.13;;;11.35;86.20
37848;BME280;23688;33.130;-117.188;2023-01-29T11:16:25;99367.69;;;11.16;87.10
37848;BME280;23688;33.130;-117.188;2023-01-29T11:18:59;99363.88;;;11.06;87.70
37848;BME280;23688;33.130;-117.188;2023-01-29T11:21:28;99371.16;;;11.17;87.60
37848;BME280;23688;33.130;-117.188;2023-01-29T11:24:11;99359.50;;;11.05;87.98
37848;BME280;23688;33.130;-117.188;2023-01-29T11:26:42;99368.81;;;11.23;87.36
37848;BME280;23688;33.130;-117.188;2023-01-29T11:29:46;99380.50;;;11.34;86.89
37848;BME280;23688;33.130;-117.188;2023-01-29T11:32:34;99376.09;;;11.33;87.10
37848;BME280;23688;33.130;-117.188;2023-01-29T11:35:22;99379.41;;;11.29;86.67
37848;BME280;23688;33.130;-117.188;2023-01-29T11:37:49;99381.38;;;11.34;85.95
37848;BME280;23688;33.130;-117.188;2023-01-29T11:42:48;99383.88;;;11.31;85.76
37848;BME280;23688;33.130;-117.188;2023-01-29T11:45:26;99371.16;;;11.17;86.86
37848;BME280;23688;33.130;-117.188;2023-01-29T11:47:55;99393.16;;;11.25;86.98
37848;BME280;23688;33.130;-117.188;2023-01-29T11:50:27;99386.09;;;10.98;88.81
37848;BME280;23688;33.130;-117.188;2023-01-29T11:52:54;99384.06;;;11.13;88.82
37848;BME280;23688;33.130;-117.188;2023-01-29T11:55:30;99380.97;;;11.24;89.16
37848;BME280;23688;33.130;-117.188;2023-01-29T12:00:53;99379.69;;;11.12;90.18
37848;BME280;23688;33.130;-117.188;2023-01-29T12:03:40;99377.09;;;11.12;90.56
37848;BME280;23688;33.130;-117.188;2023-01-29T12:06:20;99377.88;;;11.10;91.18
37848;BME280;23688;33.130;-117.188;2023-01-29T12:09:00;99388.41;;;10.90;92.23
37848;BME280;23688;33.130;-117.188;2023-01-29T12:11:29;99385.81;;;10.90;93.15
37848;BME280;23688;33.130;-117.188;2023-01-29T12:14:04;99377.94;;;10.89;93.82
37848;BME280;23688;33.130;-117.188;2023-01-29T12:16:53;99376.63;;;10.78;94.83
37848;BME280;23688;33.130;-117.188;2023-01-29T12:22:23;99381.03;;;10.79;96.66
37848;BME280;23688;33.130;-117.188;2023-01-29T12:25:03;99375.56;;;10.73;96.81
37848;BME280;23688;33.130;-117.188;2023-01-29T12:27:45;99384.56;;;10.81;97.44
37848;BME280;23688;33.130;-117.188;2023-01-29T12:30:27;99369.47;;;10.70;98.10
37848;BME280;23688;33.130;-117.188;2023-01-29T12:33:12;99372.09;;;10.72;97.51
37848;BME280;23688;33.130;-117.188;2023-01-29T12:35:51;99373.94;;;10.75;97.81
37848;BME280;23688;33.130;-117.188;2023-01-29T12:38:23;99384.28;;;10.73;97.97
37848;BME280;23688;33.130;-117.188;2023-01-29T12:43:17;99378.81;;;10.67;97.90
37848;BME280;23688;33.130;-117.188;2023-01-29T12:45:49;99372.56;;;10.62;98.70
37848;BME280;23688;33.130;-117.188;2023-01-29T12:48:27;99382.38;;;10.69;97.67
37848;BME280;23688;33.130;-117.188;2023-01-29T12:50:58;99380.25;;;10.59;97.39
37848;BME280;23688;33.130;-117.188;2023-01-29T12:53:36;99379.19;;;10.54;97.25
37848;BME280;23688;33.130;-117.188;2023-01-29T12:59:09;99363.53;;;10.52;96.47
37848;BME280;23688;33.130;-117.188;2023-01-29T13:01:51;99367.00;;;10.53;95.82
37848;BME280;23688;33.130;-117.188;2023-01-29T13:04:41;99356.94;;;10.60;95.70
37848;BME280;23688;33.130;-117.188;2023-01-29T13:07:16;99367.19;;;10.57;95.25
37848;BME280;23688;33.130;-117.188;2023-01-29T13:09:50;99359.69;;;10.42;95.75
37848;BME280;23688;33.130;-117.188;2023-01-29T13:12:19;99359.59;;;10.39;95.86
37848;BME280;23688;33.130;-117.188;2023-01-29T13:15:08;99349.22;;;10.39;95.95
37848;BME280;23688;33.130;-117.188;2023-01-29T13:17:46;99348.44;;;10.42;96.22
37848;BME280;23688;33.130;-117.188;2023-01-29T13:20:23;99345.47;;;10.33;96.15
37848;BME280;23688;33.130;-117.188;2023-01-29T13:22:54;99343.56;;;10.28;96.22
37848;BME280;23688;33.130;-117.188;2023-01-29T13:25:21;99338.94;;;10.21;97.32
37848;BME280;23688;33.130;-117.188;2023-01-29T13:27:48;99332.81;;;10.19;98.15
37848;BME280;23688;33.130;-117.188;2023-01-29T13:30:29;99324.78;;;10.13;98.55
37848;BME280;23688;33.130;-117.188;2023-01-29T13:32:58;99338.44;;;10.30;97.84
37848;BME280;23688;33.130;-117.188;2023-01-29T13:35:39;99330.66;;;10.30;97.68
37848;BME280;23688;33.130;-117.188;2023-01-29T13:38:30;99319.13;;;10.23;97.39
37848;BME280;23688;33.130;-117.188;2023-01-29T13:41:02;99329.47;;;10.22;97.81
37848;BME280;23688;33.130;-117.188;2023-01-29T13:43:37;99331.31;;;10.26;97.92
37848;BME280;23688;33.130;-117.188;2023-01-29T13:46:12;99316.22;;;10.16;99.01
37848;BME280;23688;33.130;-117.188;2023-01-29T13:48:42;99320.72;;;10.20;99.23
37848;BME280;23688;33.130;-117.188;2023-01-29T13:51:12;99337.81;;;10.15;100.00
37848;BME280;23688;33.130;-117.188;2023-01-29T13:53:58;99335.84;;;10.09;100.00
37848;BME280;23688;33.130;-117.188;2023-01-29T13:58:56;99326.47;;;10.34;99.78
37848;BME280;23688;33.130;-117.188;2023-01-29T14:06:53;99341.03;;;10.51;98.39
37848;BME280;23688;33.130;-117.188;2023-01-29T14:12:09;99351.41;;;10.51;97.56
37848;BME280;23688;33.130;-117.188;2023-01-29T14:17:24;99349.03;;;10.57;95.96
37848;BME280;23688;33.130;-117.188;2023-01-29T14:19:56;99356.22;;;10.64;95.72
37848;BME280;23688;33.130;-117.188;2023-01-29T14:22:26;99344.91;;;10.62;95.95
37848;BME280;23688;33.130;-117.188;2023-01-29T14:24:56;99339.59;;;10.59;95.53
37848;BME280;23688;33.130;-117.188;2023-01-29T14:27:24;99354.75;;;10.71;94.70
37848;BME280;23688;33.130;-117.188;2023-01-29T14:29:51;99356.47;;;10.70;94.41
37848;BME280;23688;33.130;-117.188;2023-01-29T14:32:24;99356.59;;;10.74;93.89
37848;BME280;23688;33.130;-117.188;2023-01-29T14:34:59;99353.25;;;10.78;93.05
37848;BME280;23688;33.130;-117.188;2023-01-29T14:37:38;99338.34;;;10.72;92.67
37848;BME280;23688;33.130;-117.188;2023-01-29T14:40:18;99349.97;;;10.82;92.28
37848;BME280;23688;33.130;-117.188;2023-01-29T14:42:54;99350.97;;;10.85;91.86
37848;BME280;23688;33.130;-117.188;2023-01-29T14:50:38;99364.00;;;10.87;91.75
37848;BME280;23688;33.130;-117.188;2023-01-29T14:55:44;99374.41;;;10.87;91.59